createdAt,value
2023-03-18T00:03:12.798Z,8.25
2023-03-18T00:07:16.368Z,8.15
2023-03-18T00:11:23.325Z,8.07
2023-03-18T00:15:26.972Z,7.95
2023-03-18T00:19:34.060Z,7.87
2023-03-18T00:23:38.689Z,7.79
2023-03-18T00:27:42.181Z,7.72
2023-03-18T00:31:45.123Z,7.64
2023-03-18T00:35:50.235Z,7.53
2023-03-18T00:39:53.117Z,7.42
2023-03-18T00:43:57.782Z,7.31
2023-03-18T00:48:00.821Z,7.19
2023-03-18T00:52:05.658Z,7.08
2023-03-18T00:56:09.057Z,6.96
2023-03-18T01:00:13.639Z,6.84
2023-03-18T01:04:17.778Z,6.73
2023-03-18T01:08:23.346Z,6.64
2023-03-18T01:12:26.614Z,6.54
2023-03-18T01:16:30.913Z,6.43
2023-03-18T01:20:34.114Z,6.32
2023-03-18T01:24:39.825Z,6.22
2023-03-18T01:28:43.344Z,6.11
2023-03-18T01:32:47.100Z,6.03
2023-03-18T01:36:50.326Z,5.93
2023-03-18T01:40:55.156Z,5.87
2023-03-18T01:45:21.926Z,5.83
2023-03-18T01:49:29.205Z,5.81
2023-03-18T01:53:37.513Z,5.80
2023-03-18T01:57:46.334Z,5.79
2023-03-18T02:01:54.374Z,5.77
2023-03-18T02:05:57.711Z,5.76
2023-03-18T02:10:02.916Z,5.73
2023-03-18T02:14:12.459Z,5.73
2023-03-18T02:18:21.019Z,5.76
2023-03-18T02:22:29.725Z,5.82
2023-03-18T02:26:50.346Z,5.93
2023-03-18T02:30:58.989Z,6.01
2023-03-18T02:35:05.534Z,6.04
2023-03-18T02:39:09.517Z,6.09
2023-03-18T02:43:21.837Z,6.15
2023-03-18T02:47:28.237Z,6.18
2023-03-18T02:51:31.420Z,6.18
2023-03-18T02:55:34.677Z,6.15
2023-03-18T02:59:37.622Z,6.12
2023-03-18T03:03:43.161Z,6.09
2023-03-18T03:07:46.719Z,6.03
2023-03-18T03:11:50.424Z,5.99
2023-03-18T03:15:54.461Z,5.93
2023-03-18T03:19:59.790Z,5.87
2023-03-18T03:24:03.921Z,5.77
2023-03-18T03:28:08.998Z,5.68
2023-03-18T03:32:12.097Z,5.58
2023-03-18T03:36:18.627Z,5.49
2023-03-18T03:40:22.321Z,5.39
2023-03-18T03:44:26.365Z,5.33
2023-03-18T03:48:29.368Z,5.27
2023-03-18T03:52:34.546Z,5.18
2023-03-18T03:56:37.697Z,5.08
2023-03-18T04:00:41.059Z,5.02
2023-03-18T04:04:45.581Z,4.99
2023-03-18T04:08:50.361Z,4.92
2023-03-18T04:12:53.701Z,4.84
2023-03-18T04:16:58.505Z,4.77
2023-03-18T04:21:01.882Z,4.72
2023-03-18T04:25:07.937Z,4.69
2023-03-18T04:29:10.877Z,4.62
2023-03-18T04:33:16.326Z,4.60
2023-03-18T04:37:20.312Z,4.56
2023-03-18T04:41:26.574Z,4.54
2023-03-18T04:45:29.614Z,4.51
2023-03-18T04:49:32.727Z,4.48
2023-03-18T04:53:35.872Z,4.40
2023-03-18T04:57:43.167Z,4.47
2023-03-18T05:01:46.133Z,4.44
2023-03-18T05:05:49.619Z,4.41
2023-03-18T05:09:53.094Z,4.39
2023-03-18T05:13:57.845Z,4.38
2023-03-18T05:18:01.018Z,4.30
2023-03-18T05:22:04.406Z,4.31
2023-03-18T05:26:07.776Z,4.28
2023-03-18T05:30:22.477Z,4.25
2023-03-18T05:34:31.483Z,4.22
2023-03-18T05:38:34.535Z,4.20
2023-03-18T05:42:54.889Z,4.20
2023-03-18T05:47:00.450Z,4.23
2023-03-18T05:51:04.562Z,4.25
2023-03-18T05:55:08.176Z,4.24
2023-03-18T05:59:11.693Z,4.32
2023-03-18T06:03:17.675Z,4.36
2023-03-18T06:07:21.190Z,4.41
2023-03-18T06:11:25.040Z,4.47
2023-03-18T06:15:28.280Z,4.54
2023-03-18T06:19:34.561Z,4.64
2023-03-18T06:23:38.001Z,4.72
2023-03-18T06:27:41.479Z,4.80
2023-03-18T06:31:44.364Z,4.87
2023-03-18T06:35:50.960Z,4.97
2023-03-18T06:39:54.173Z,5.06
2023-03-18T06:43:57.414Z,5.18
2023-03-18T06:48:00.935Z,5.33
2023-03-18T06:52:05.805Z,5.52
2023-03-18T06:56:09.969Z,5.69
2023-03-18T07:00:14.716Z,5.90
2023-03-18T07:04:17.809Z,6.13
2023-03-18T07:08:23.164Z,6.39
2023-03-18T07:12:27.076Z,6.72
2023-03-18T07:16:31.190Z,7.14
2023-03-18T07:20:34.462Z,7.71
2023-03-18T07:24:39.600Z,8.37
2023-03-18T07:28:42.757Z,9.07
2023-03-18T07:32:46.727Z,9.74
2023-03-18T07:36:49.973Z,10.35
2023-03-18T07:40:54.777Z,10.92
2023-03-18T07:44:58.071Z,11.39
2023-03-18T07:49:01.633Z,11.86
2023-03-18T07:53:04.771Z,12.26
2023-03-18T07:57:10.651Z,12.68
2023-03-18T08:01:16.519Z,13.08
2023-03-18T08:05:21.377Z,13.49
2023-03-18T08:09:24.763Z,13.85
2023-03-18T08:13:29.720Z,14.15
2023-03-18T08:17:32.798Z,14.44
2023-03-18T08:21:36.815Z,14.74
2023-03-18T08:25:39.827Z,15.09
2023-03-18T08:29:45.217Z,15.44
2023-03-18T08:33:49.492Z,15.77
2023-03-18T08:37:52.729Z,16.05
2023-03-18T08:41:55.857Z,16.34
2023-03-18T08:46:01.295Z,16.64
2023-03-18T08:50:04.320Z,16.88
2023-03-18T08:54:08.881Z,17.13
2023-03-18T08:58:12.416Z,17.41
2023-03-18T09:02:18.827Z,17.70
2023-03-18T09:06:23.054Z,17.97
2023-03-18T09:10:26.776Z,18.20
2023-03-18T09:14:30.253Z,18.36
2023-03-18T09:18:35.761Z,18.51
2023-03-18T09:22:39.613Z,18.67
2023-03-18T09:26:42.808Z,18.87
2023-03-18T09:30:45.919Z,19.08
2023-03-18T09:34:50.853Z,19.38
2023-03-18T09:38:54.251Z,19.62
2023-03-18T09:43:07.382Z,19.90
2023-03-18T09:47:41.548Z,20.15
2023-03-18T09:51:59.399Z,20.38
2023-03-18T09:56:04.067Z,20.55
2023-03-18T10:00:18.131Z,20.73
2023-03-18T10:04:24.965Z,20.91
2023-03-18T10:08:43.811Z,21.05
2023-03-18T10:12:53.009Z,21.16
2023-03-18T10:17:11.522Z,21.28
2023-03-18T10:21:30.815Z,21.37
2023-03-18T10:25:39.495Z,21.47
2023-03-18T10:29:48.546Z,21.53
2023-03-18T10:33:59.293Z,21.65
2023-03-18T10:38:06.214Z,21.76
2023-03-18T10:42:22.240Z,21.89
2023-03-18T10:46:28.415Z,22.00
2023-03-18T10:50:37.429Z,22.12
2023-03-18T10:54:42.678Z,22.23
2023-03-18T10:58:47.964Z,22.19
2023-03-18T11:02:51.435Z,22.34
2023-03-18T11:06:59.472Z,22.47
2023-03-18T11:11:34.827Z,22.62
2023-03-18T11:15:50.567Z,22.70
2023-03-18T11:20:05.903Z,22.86
2023-03-18T11:24:36.623Z,22.99
2023-03-18T11:28:43.250Z,23.08
2023-03-18T11:32:56.679Z,23.09
2023-03-18T11:37:04.853Z,23.07
2023-03-18T11:41:10.065Z,23.13
2023-03-18T11:45:33.056Z,23.17
2023-03-18T11:49:38.843Z,23.18
2023-03-18T11:53:53.786Z,23.25
2023-03-18T11:58:24.382Z,23.41
2023-03-18T12:02:45.363Z,23.62
2023-03-18T12:07:06.055Z,23.80
2023-03-18T12:11:14.842Z,23.96
2023-03-18T12:15:27.561Z,24.09
2023-03-18T12:19:38.136Z,24.24
2023-03-18T12:24:05.958Z,24.32
2023-03-18T12:28:23.944Z,24.41
2023-03-18T12:32:33.709Z,24.50
2023-03-18T12:36:50.267Z,24.53
2023-03-18T12:41:07.994Z,24.49
2023-03-18T12:45:14.838Z,24.44
2023-03-18T12:49:22.699Z,24.48
2023-03-18T12:53:31.288Z,24.51
2023-03-18T12:57:43.286Z,24.56
2023-03-18T13:01:54.791Z,24.59
2023-03-18T13:06:02.441Z,24.62
2023-03-18T13:10:19.849Z,24.69
2023-03-18T13:14:33.470Z,24.80
2023-03-18T13:18:43.682Z,24.86
2023-03-18T13:23:14.406Z,24.89
2023-03-18T13:27:53.262Z,24.85
2023-03-18T13:32:09.589Z,24.80
2023-03-18T13:36:23.787Z,24.71
2023-03-18T13:40:42.971Z,24.69
2023-03-18T13:44:53.115Z,24.64
2023-03-18T13:49:00.121Z,24.62
2023-03-18T13:53:04.952Z,24.53
2023-03-18T13:57:36.920Z,24.49
2023-03-18T14:01:49.727Z,24.49
2023-03-18T14:06:23.705Z,24.53
2023-03-18T14:10:26.732Z,24.57
2023-03-18T14:14:57.246Z,24.63
2023-03-18T14:19:04.112Z,24.75
2023-03-18T14:23:44.697Z,24.87
2023-03-18T14:27:52.572Z,24.91
2023-03-18T14:31:59.726Z,24.89
2023-03-18T14:36:09.791Z,24.87
2023-03-18T14:40:18.179Z,24.81
2023-03-18T14:44:29.183Z,24.75
2023-03-18T14:48:35.077Z,24.69
2023-03-18T14:52:41.946Z,24.66
2023-03-18T14:56:54.935Z,24.57
2023-03-18T15:01:06.521Z,24.43
2023-03-18T15:05:15.426Z,24.27
2023-03-18T15:09:23.598Z,24.15
2023-03-18T15:13:27.713Z,24.07
2023-03-18T15:17:32.472Z,24.03
2023-03-18T15:21:36.794Z,23.95
2023-03-18T15:25:43.220Z,23.83
2023-03-18T15:29:50.234Z,23.66
2023-03-18T15:34:06.732Z,23.48
2023-03-18T15:38:19.030Z,23.26
2023-03-18T15:42:23.082Z,23.02
2023-03-18T15:46:28.972Z,22.81
2023-03-18T15:50:35.075Z,22.62
2023-03-18T15:54:42.302Z,22.43
2023-03-18T15:58:47.816Z,22.20
2023-03-18T16:02:51.347Z,21.96
2023-03-18T16:06:56.304Z,21.73
2023-03-18T16:11:04.493Z,21.47
2023-03-18T16:15:10.344Z,21.25
2023-03-18T16:19:25.158Z,21.03
2023-03-18T16:23:30.487Z,20.75
2023-03-18T16:27:38.822Z,20.49
2023-03-18T16:31:42.121Z,20.20
2023-03-18T16:35:47.285Z,19.94
2023-03-18T16:39:52.145Z,19.62
2023-03-18T16:43:56.168Z,19.32
2023-03-18T16:48:02.463Z,19.04
2023-03-18T16:52:06.134Z,18.74
2023-03-18T16:56:17.793Z,18.43
2023-03-18T17:00:24.616Z,18.10
2023-03-18T17:04:30.909Z,17.73
2023-03-18T17:08:34.316Z,17.35
2023-03-18T17:12:40.403Z,16.92
2023-03-18T17:16:43.924Z,16.60
2023-03-18T17:20:48.179Z,16.27
2023-03-18T17:24:51.272Z,15.98
2023-03-18T17:28:56.703Z,15.71
2023-03-18T17:32:59.932Z,15.47
2023-03-18T17:37:04.442Z,15.26
2023-03-18T17:41:16.073Z,15.06
2023-03-18T17:45:29.677Z,14.84
2023-03-18T17:49:51.515Z,14.59
2023-03-18T17:53:58.986Z,14.36
2023-03-18T17:58:02.530Z,14.13
2023-03-18T18:02:13.514Z,13.94
2023-03-18T18:06:19.369Z,13.76
2023-03-18T18:10:22.320Z,13.58
2023-03-18T18:14:31.734Z,13.41
2023-03-18T18:18:38.687Z,13.23
2023-03-18T18:22:46.714Z,13.12
2023-03-18T18:26:49.838Z,12.98
2023-03-18T18:30:53.188Z,12.79
2023-03-18T18:34:58.010Z,12.78
2023-03-18T18:39:02.251Z,12.72
2023-03-18T18:43:05.762Z,12.72
2023-03-18T18:47:18.945Z,12.78
2023-03-18T18:51:25.434Z,12.83
2023-03-18T18:55:28.824Z,12.88
2023-03-18T18:59:34.266Z,12.97
2023-03-18T19:03:37.889Z,13.06
2023-03-18T19:07:42.828Z,13.09
2023-03-18T19:11:46.647Z,13.17
2023-03-18T19:15:51.392Z,13.22
2023-03-18T19:19:55.249Z,13.26
2023-03-18T19:24:02.332Z,13.30
2023-03-18T19:28:06.537Z,13.33
2023-03-18T19:32:15.886Z,13.33
2023-03-18T19:36:26.660Z,13.35
2023-03-18T19:40:32.107Z,13.35
2023-03-18T19:44:36.026Z,13.31
2023-03-18T19:48:39.248Z,13.24
2023-03-18T19:52:42.841Z,13.13
2023-03-18T19:56:48.690Z,13.00
2023-03-18T20:00:53.843Z,12.84
2023-03-18T20:04:59.664Z,12.66
2023-03-18T20:09:03.066Z,12.50
2023-03-18T20:13:08.387Z,12.38
2023-03-18T20:17:38.678Z,12.24
2023-03-18T20:21:42.312Z,12.08
2023-03-18T20:25:47.593Z,11.94
2023-03-18T20:29:52.537Z,11.80
2023-03-18T20:33:56.059Z,11.66
2023-03-18T20:38:02.025Z,11.52
2023-03-18T20:42:05.666Z,11.40
2023-03-18T20:46:14.200Z,11.31
2023-03-18T20:50:19.613Z,11.22
2023-03-18T20:54:30.543Z,11.12
2023-03-18T20:58:33.974Z,11.02
2023-03-18T21:02:39.220Z,10.94
2023-03-18T21:06:43.474Z,10.86
2023-03-18T21:10:47.547Z,10.83
2023-03-18T21:14:50.666Z,10.80
2023-03-18T21:18:55.425Z,10.80
2023-03-18T21:22:58.324Z,10.79
2023-03-18T21:27:05.065Z,10.80
2023-03-18T21:31:22.609Z,10.82
2023-03-18T21:35:29.491Z,10.83
2023-03-18T21:39:33.695Z,10.83
2023-03-18T21:43:38.717Z,10.83
2023-03-18T21:47:42.273Z,10.81
2023-03-18T21:51:47.247Z,10.78
2023-03-18T21:55:53.217Z,10.73
2023-03-18T21:59:59.225Z,10.65
2023-03-18T22:04:02.921Z,10.57
2023-03-18T22:08:07.798Z,10.49
2023-03-18T22:12:14.485Z,10.41
2023-03-18T22:16:19.545Z,10.32
2023-03-18T22:20:23.358Z,10.24
2023-03-18T22:24:27.977Z,10.18
2023-03-18T22:28:32.512Z,10.15
2023-03-18T22:32:40.786Z,10.11
2023-03-18T22:36:43.794Z,10.04
2023-03-18T22:40:50.540Z,9.96
2023-03-18T22:44:53.730Z,9.88
2023-03-18T22:49:00.189Z,9.79
2023-03-18T22:53:06.662Z,9.71
2023-03-18T22:57:18.132Z,9.67
2023-03-18T23:01:24.870Z,9.65
2023-03-18T23:05:28.148Z,9.66
2023-03-18T23:09:31.784Z,9.67
2023-03-18T23:13:38.788Z,9.69
2023-03-18T23:17:42.606Z,9.69
2023-03-18T23:21:46.073Z,9.66
2023-03-18T23:25:50.174Z,9.65
2023-03-18T23:29:55.676Z,9.61
2023-03-18T23:33:58.621Z,9.54
2023-03-18T23:38:02.311Z,9.48
2023-03-18T23:42:06.321Z,9.38
2023-03-18T23:46:11.371Z,9.27
2023-03-18T23:50:14.530Z,9.15
2023-03-18T23:54:17.837Z,9.09
2023-03-18T23:58:20.948Z,9.03
